sensor_id;sensor_type;location;lat;lon;timestamp;temperature;humidity
75430;DHT22;64127;51.488;5.462;2023-12-20T00:00:56;8.10;99.90
75430;DHT22;64127;51.488;5.462;2023-12-20T00:03:28;8.10;99.90
75430;DHT22;64127;51.488;5.462;2023-12-20T00:06:12;8.10;99.90
75430;DHT22;64127;51.488;5.462;2023-12-20T00:08:44;8.00;99.90
75430;DHT22;64127;51.488;5.462;2023-12-20T00:11:16;8.00;99.90
75430;DHT22;64127;51.488;5.462;2023-12-20T00:13:48;8.00;99.90
75430;DHT22;64127;51.488;5.462;2023-12-20T00:16:22;7.90;99.90
75430;DHT22;64127;51.488;5.462;2023-12-20T00:18:54;7.90;99.90
75430;DHT22;64127;51.488;5.462;2023-12-20T00:21:26;7.80;99.90
75430;DHT22;64127;51.488;5.462;2023-12-20T00:23:58;7.80;99.90
75430;DHT22;64127;51.488;5.462;2023-12-20T00:26:30;7.80;99.90
75430;DHT22;64127;51.488;5.462;2023-12-20T00:29:02;7.70;99.90
75430;DHT22;64127;51.488;5.462;2023-12-20T00:31:34;7.70;99.90
75430;DHT22;64127;51.488;5.462;2023-12-20T00:34:07;7.70;99.90
75430;DHT22;64127;51.488;5.462;2023-12-20T00:36:39;7.70;99.90
75430;DHT22;64127;51.488;5.462;2023-12-20T00:39:11;7.70;99.90
75430;DHT22;64127;51.488;5.462;2023-12-20T00:41:43;7.60;99.90
75430;DHT22;64127;51.488;5.462;2023-12-20T00:44:15;7.60;99.90
75430;DHT22;64127;51.488;5.462;2023-12-20T00:46:47;7.60;99.90
75430;DHT22;64127;51.488;5.462;2023-12-20T00:49:19;7.60;99.90
75430;DHT22;64127;51.488;5.462;2023-12-20T00:51:52;7.60;99.90
75430;DHT22;64127;51.488;5.462;2023-12-20T00:54:24;7.50;99.90
75430;DHT22;64127;51.488;5.462;2023-12-20T00:56:57;7.50;99.90
75430;DHT22;64127;51.488;5.462;2023-12-20T00:59:29;7.40;99.90
75430;DHT22;64127;51.488;5.462;2023-12-20T01:02:01;7.40;99.90
75430;DHT22;64127;51.488;5.462;2023-12-20T01:04:34;7.40;99.90
75430;DHT22;64127;51.488;5.462;2023-12-20T01:07:06;7.40;99.90
75430;DHT22;64127;51.488;5.462;2023-12-20T01:09:39;7.40;99.90
75430;DHT22;64127;51.488;5.462;2023-12-20T01:12:11;7.40;99.90
75430;DHT22;64127;51.488;5.462;2023-12-20T01:14:43;7.40;99.90
75430;DHT22;64127;51.488;5.462;2023-12-20T01:17:15;7.30;99.90
75430;DHT22;64127;51.488;5.462;2023-12-20T01:19:47;7.40;99.90
75430;DHT22;64127;51.488;5.462;2023-12-20T01:22:19;7.30;99.90
75430;DHT22;64127;51.488;5.462;2023-12-20T01:24:51;7.30;99.90
75430;DHT22;64127;51.488;5.462;2023-12-20T01:27:23;7.30;99.90
75430;DHT22;64127;51.488;5.462;2023-12-20T01:29:55;7.30;99.90
75430;DHT22;64127;51.488;5.462;2023-12-20T01:32:27;7.30;99.90
75430;DHT22;64127;51.488;5.462;2023-12-20T01:34:59;7.30;99.90
75430;DHT22;64127;51.488;5.462;2023-12-20T01:37:34;7.30;99.90
75430;DHT22;64127;51.488;5.462;2023-12-20T01:40:06;7.30;99.90
75430;DHT22;64127;51.488;5.462;2023-12-20T01:42:39;7.30;99.90
75430;DHT22;64127;51.488;5.462;2023-12-20T01:45:12;7.30;99.90
75430;DHT22;64127;51.488;5.462;2023-12-20T01:47:45;7.30;99.90
75430;DHT22;64127;51.488;5.462;2023-12-20T01:50:17;7.30;99.90
75430;DHT22;64127;51.488;5.462;2023-12-20T01:52:50;7.30;99.90
75430;DHT22;64127;51.488;5.462;2023-12-20T01:55:24;7.30;99.90
75430;DHT22;64127;51.488;5.462;2023-12-20T01:57:57;7.30;99.90
75430;DHT22;64127;51.488;5.462;2023-12-20T02:00:31;7.30;99.90
75430;DHT22;64127;51.488;5.462;2023-12-20T02:03:04;7.30;99.90
75430;DHT22;64127;51.488;5.462;2023-12-20T02:05:38;7.30;99.90
75430;DHT22;64127;51.488;5.462;2023-12-20T02:08:10;7.30;99.90
75430;DHT22;64127;51.488;5.462;2023-12-20T02:10:43;7.30;99.90
75430;DHT22;64127;51.488;5.462;2023-12-20T02:13:15;7.30;99.90
75430;DHT22;64127;51.488;5.462;2023-12-20T02:15:47;7.30;99.90
75430;DHT22;64127;51.488;5.462;2023-12-20T02:18:19;7.20;99.90
75430;DHT22;64127;51.488;5.462;2023-12-20T02:20:52;7.20;99.90
75430;DHT22;64127;51.488;5.462;2023-12-20T02:23:25;7.20;99.90
75430;DHT22;64127;51.488;5.462;2023-12-20T02:25:57;7.20;99.90
75430;DHT22;64127;51.488;5.462;2023-12-20T02:28:29;7.30;99.90
75430;DHT22;64127;51.488;5.462;2023-12-20T02:31:02;7.30;99.90
75430;DHT22;64127;51.488;5.462;2023-12-20T02:33:34;7.30;99.90
75430;DHT22;64127;51.488;5.462;2023-12-20T02:36:06;7.30;99.90
75430;DHT22;64127;51.488;5.462;2023-12-20T02:38:38;7.20;99.90
75430;DHT22;64127;51.488;5.462;2023-12-20T02:41:10;7.20;99.90
75430;DHT22;64127;51.488;5.462;2023-12-20T02:43:42;7.20;99.90
75430;DHT22;64127;51.488;5.462;2023-12-20T02:46:16;7.10;99.90
75430;DHT22;64127;51.488;5.462;2023-12-20T02:48:49;7.10;99.90
75430;DHT22;64127;51.488;5.462;2023-12-20T02:51:21;7.10;99.90
75430;DHT22;64127;51.488;5.462;2023-12-20T02:53:53;7.10;99.90
75430;DHT22;64127;51.488;5.462;2023-12-20T02:56:25;7.10;99.90
75430;DHT22;64127;51.488;5.462;2023-12-20T02:58:57;7.10;99.90
75430;DHT22;64127;51.488;5.462;2023-12-20T03:01:29;7.10;99.90
75430;DHT22;64127;51.488;5.462;2023-12-20T03:04:01;7.10;99.90
75430;DHT22;64127;51.488;5.462;2023-12-20T03:06:34;7.10;99.90
75430;DHT22;64127;51.488;5.462;2023-12-20T03:09:06;7.10;99.90
75430;DHT22;64127;51.488;5.462;2023-12-20T03:11:39;7.10;99.90
75430;DHT22;64127;51.488;5.462;2023-12-20T03:14:11;7.10;99.90
75430;DHT22;64127;51.488;5.462;2023-12-20T03:16:47;7.10;99.90
75430;DHT22;64127;51.488;5.462;2023-12-20T03:19:21;7.10;99.90
75430;DHT22;64127;51.488;5.462;2023-12-20T03:21:53;7.10;99.90
75430;DHT22;64127;51.488;5.462;2023-12-20T03:24:25;7.00;99.90
75430;DHT22;64127;51.488;5.462;2023-12-20T03:26:57;7.00;99.90
75430;DHT22;64127;51.488;5.462;2023-12-20T03:29:29;7.00;99.90
75430;DHT22;64127;51.488;5.462;2023-12-20T03:32:01;7.00;99.90
75430;DHT22;64127;51.488;5.462;2023-12-20T03:34:33;7.00;99.90
75430;DHT22;64127;51.488;5.462;2023-12-20T03:37:05;7.00;99.90
75430;DHT22;64127;51.488;5.462;2023-12-20T03:39:37;7.00;99.90
75430;DHT22;64127;51.488;5.462;2023-12-20T03:42:09;7.00;99.90
75430;DHT22;64127;51.488;5.462;2023-12-20T03:44:41;7.00;99.90
75430;DHT22;64127;51.488;5.462;2023-12-20T03:47:13;7.00;99.90
75430;DHT22;64127;51.488;5.462;2023-12-20T03:49:45;7.00;99.90
75430;DHT22;64127;51.488;5.462;2023-12-20T03:52:17;7.10;99.90
75430;DHT22;64127;51.488;5.462;2023-12-20T03:54:49;7.10;99.90
75430;DHT22;64127;51.488;5.462;2023-12-20T03:57:21;7.10;99.90
75430;DHT22;64127;51.488;5.462;2023-12-20T03:59:53;7.10;99.90
75430;DHT22;64127;51.488;5.462;2023-12-20T04:02:25;7.10;99.90
75430;DHT22;64127;51.488;5.462;2023-12-20T04:04:57;7.20;99.90
75430;DHT22;64127;51.488;5.462;2023-12-20T04:07:29;7.20;99.90
75430;DHT22;64127;51.488;5.462;2023-12-20T04:10:02;7.20;99.90
75430;DHT22;64127;51.488;5.462;2023-12-20T04:12:35;7.20;99.90
75430;DHT22;64127;51.488;5.462;2023-12-20T04:15:07;7.30;99.90
75430;DHT22;64127;51.488;5.462;2023-12-20T04:17:41;7.30;99.90
75430;DHT22;64127;51.488;5.462;2023-12-20T04:20:14;7.30;99.90
75430;DHT22;64127;51.488;5.462;2023-12-20T04:22:46;7.30;99.90
75430;DHT22;64127;51.488;5.462;2023-12-20T04:25:18;7.30;99.90
75430;DHT22;64127;51.488;5.462;2023-12-20T04:27:50;7.30;99.90
75430;DHT22;64127;51.488;5.462;2023-12-20T04:30:22;7.30;99.90
75430;DHT22;64127;51.488;5.462;2023-12-20T04:32:54;7.30;99.90
75430;DHT22;64127;51.488;5.462;2023-12-20T04:35:26;7.30;99.90
75430;DHT22;64127;51.488;5.462;2023-12-20T04:37:59;7.40;99.90
75430;DHT22;64127;51.488;5.462;2023-12-20T04:40:31;7.40;99.90
75430;DHT22;64127;51.488;5.462;2023-12-20T04:43:03;7.40;99.90
75430;DHT22;64127;51.488;5.462;2023-12-20T04:45:35;7.40;99.90
75430;DHT22;64127;51.488;5.462;2023-12-20T04:48:07;7.40;99.90
75430;DHT22;64127;51.488;5.462;2023-12-20T04:50:39;7.40;99.90
75430;DHT22;64127;51.488;5.462;2023-12-20T04:53:11;7.40;99.90
75430;DHT22;64127;51.488;5.462;2023-12-20T04:55:43;7.40;99.90
75430;DHT22;64127;51.488;5.462;2023-12-20T04:58:15;7.40;99.90
75430;DHT22;64127;51.488;5.462;2023-12-20T05:00:47;7.40;99.90
75430;DHT22;64127;51.488;5.462;2023-12-20T05:03:19;7.40;99.90
75430;DHT22;64127;51.488;5.462;2023-12-20T05:05:51;7.40;99.90
75430;DHT22;64127;51.488;5.462;2023-12-20T05:08:24;7.40;99.90
75430;DHT22;64127;51.488;5.462;2023-12-20T05:10:56;7.40;99.90
75430;DHT22;64127;51.488;5.462;2023-12-20T05:13:28;7.40;99.90
75430;DHT22;64127;51.488;5.462;2023-12-20T05:16:15;7.40;99.90
75430;DHT22;64127;51.488;5.462;2023-12-20T05:18:49;7.40;99.90
75430;DHT22;64127;51.488;5.462;2023-12-20T05:21:24;7.40;99.90
75430;DHT22;64127;51.488;5.462;2023-12-20T05:23:56;7.40;99.90
75430;DHT22;64127;51.488;5.462;2023-12-20T05:26:28;7.40;99.90
75430;DHT22;64127;51.488;5.462;2023-12-20T05:29:01;7.40;99.90
75430;DHT22;64127;51.488;5.462;2023-12-20T05:31:33;7.40;99.90
75430;DHT22;64127;51.488;5.462;2023-12-20T05:34:05;7.40;99.90
75430;DHT22;64127;51.488;5.462;2023-12-20T05:36:37;7.40;99.90
75430;DHT22;64127;51.488;5.462;2023-12-20T05:39:10;7.50;99.90
75430;DHT22;64127;51.488;5.462;2023-12-20T05:41:42;7.50;99.90
75430;DHT22;64127;51.488;5.462;2023-12-20T05:44:14;7.50;99.90
75430;DHT22;64127;51.488;5.462;2023-12-20T05:46:46;7.50;99.90
75430;DHT22;64127;51.488;5.462;2023-12-20T05:49:18;7.50;99.90
75430;DHT22;64127;51.488;5.462;2023-12-20T05:51:50;7.50;99.90
75430;DHT22;64127;51.488;5.462;2023-12-20T05:54:23;7.50;99.90
75430;DHT22;64127;51.488;5.462;2023-12-20T05:56:55;7.50;99.90
75430;DHT22;64127;51.488;5.462;2023-12-20T05:59:27;7.50;99.90
75430;DHT22;64127;51.488;5.462;2023-12-20T06:01:59;7.50;99.90
75430;DHT22;64127;51.488;5.462;2023-12-20T06:04:31;7.50;99.90
75430;DHT22;64127;51.488;5.462;2023-12-20T06:07:04;7.50;99.90
75430;DHT22;64127;51.488;5.462;2023-12-20T06:09:36;7.50;99.90
75430;DHT22;64127;51.488;5.462;2023-12-20T06:12:08;7.50;99.90
75430;DHT22;64127;51.488;5.462;2023-12-20T06:14:40;7.40;99.90
75430;DHT22;64127;51.488;5.462;2023-12-20T06:17:12;7.40;99.90
75430;DHT22;64127;51.488;5.462;2023-12-20T06:19:44;7.40;99.90
75430;DHT22;64127;51.488;5.462;2023-12-20T06:22:20;7.30;99.90
75430;DHT22;64127;51.488;5.462;2023-12-20T06:24:52;7.30;99.90
75430;DHT22;64127;51.488;5.462;2023-12-20T06:27:24;7.30;99.90
75430;DHT22;64127;51.488;5.462;2023-12-20T06:29:56;7.30;99.90
75430;DHT22;64127;51.488;5.462;2023-12-20T06:32:28;7.30;99.90
75430;DHT22;64127;51.488;5.462;2023-12-20T06:35:01;7.20;99.90
75430;DHT22;64127;51.488;5.462;2023-12-20T06:37:33;7.20;99.90
75430;DHT22;64127;51.488;5.462;2023-12-20T06:40:05;7.20;99.90
75430;DHT22;64127;51.488;5.462;2023-12-20T06:42:46;7.10;99.90
75430;DHT22;64127;51.488;5.462;2023-12-20T06:45:35;7.10;99.90
75430;DHT22;64127;51.488;5.462;2023-12-20T06:48:07;7.10;99.90
75430;DHT22;64127;51.488;5.462;2023-12-20T06:50:39;7.10;99.90
75430;DHT22;64127;51.488;5.462;2023-12-20T06:53:11;7.10;99.90
75430;DHT22;64127;51.488;5.462;2023-12-20T06:55:43;7.10;99.90
75430;DHT22;64127;51.488;5.462;2023-12-20T06:58:15;7.10;99.90
75430;DHT22;64127;51.488;5.462;2023-12-20T07:00:48;7.10;99.90
75430;DHT22;64127;51.488;5.462;2023-12-20T07:03:22;7.10;99.90
75430;DHT22;64127;51.488;5.462;2023-12-20T07:05:54;7.10;99.90
75430;DHT22;64127;51.488;5.462;2023-12-20T07:08:26;7.10;99.90
75430;DHT22;64127;51.488;5.462;2023-12-20T07:10:58;7.10;99.90
75430;DHT22;64127;51.488;5.462;2023-12-20T07:13:30;7.20;99.90
75430;DHT22;64127;51.488;5.462;2023-12-20T07:16:02;7.10;99.90
75430;DHT22;64127;51.488;5.462;2023-12-20T07:18:34;7.10;99.90
75430;DHT22;64127;51.488;5.462;2023-12-20T07:21:06;7.10;99.90
75430;DHT22;64127;51.488;5.462;2023-12-20T07:23:39;7.10;99.90
75430;DHT22;64127;51.488;5.462;2023-12-20T07:26:12;7.10;99.90
75430;DHT22;64127;51.488;5.462;2023-12-20T07:28:44;7.10;99.90
75430;DHT22;64127;51.488;5.462;2023-12-20T07:31:16;7.10;99.90
75430;DHT22;64127;51.488;5.462;2023-12-20T07:33:48;7.10;99.90
75430;DHT22;64127;51.488;5.462;2023-12-20T07:36:21;7.20;99.90
75430;DHT22;64127;51.488;5.462;2023-12-20T07:38:53;7.20;99.90
75430;DHT22;64127;51.488;5.462;2023-12-20T07:41:25;7.20;99.90
75430;DHT22;64127;51.488;5.462;2023-12-20T07:43:57;7.30;99.90
75430;DHT22;64127;51.488;5.462;2023-12-20T07:46:29;7.20;99.90
75430;DHT22;64127;51.488;5.462;2023-12-20T07:49:01;7.20;99.90
75430;DHT22;64127;51.488;5.462;2023-12-20T07:51:33;7.30;99.90
75430;DHT22;64127;51.488;5.462;2023-12-20T07:54:05;7.30;99.90
75430;DHT22;64127;51.488;5.462;2023-12-20T07:56:39;7.30;99.90
75430;DHT22;64127;51.488;5.462;2023-12-20T07:59:11;7.30;99.90
75430;DHT22;64127;51.488;5.462;2023-12-20T08:01:56;7.30;99.90
75430;DHT22;64127;51.488;5.462;2023-12-20T08:04:28;7.30;99.90
75430;DHT22;64127;51.488;5.462;2023-12-20T08:07:00;7.30;99.90
75430;DHT22;64127;51.488;5.462;2023-12-20T08:09:32;7.30;99.90
75430;DHT22;64127;51.488;5.462;2023-12-20T08:12:06;7.30;99.90
75430;DHT22;64127;51.488;5.462;2023-12-20T08:14:38;7.30;99.90
75430;DHT22;64127;51.488;5.462;2023-12-20T08:17:10;7.30;99.90
75430;DHT22;64127;51.488;5.462;2023-12-20T08:19:42;7.30;99.90
75430;DHT22;64127;51.488;5.462;2023-12-20T08:22:14;7.40;99.90
75430;DHT22;64127;51.488;5.462;2023-12-20T08:24:46;7.40;99.90
75430;DHT22;64127;51.488;5.462;2023-12-20T08:27:18;7.40;99.90
75430;DHT22;64127;51.488;5.462;2023-12-20T08:29:50;7.40;99.90
75430;DHT22;64127;51.488;5.462;2023-12-20T08:32:25;7.40;99.90
75430;DHT22;64127;51.488;5.462;2023-12-20T08:34:58;7.50;99.90
75430;DHT22;64127;51.488;5.462;2023-12-20T08:37:31;7.50;99.90
75430;DHT22;64127;51.488;5.462;2023-12-20T08:40:04;7.50;99.90
75430;DHT22;64127;51.488;5.462;2023-12-20T08:42:37;7.50;99.90
75430;DHT22;64127;51.488;5.462;2023-12-20T08:45:10;7.50;99.90
75430;DHT22;64127;51.488;5.462;2023-12-20T08:47:42;7.60;99.90
75430;DHT22;64127;51.488;5.462;2023-12-20T08:50:16;7.60;99.90
75430;DHT22;64127;51.488;5.462;2023-12-20T08:52:48;7.60;99.90
75430;DHT22;64127;51.488;5.462;2023-12-20T08:55:20;7.60;99.90
75430;DHT22;64127;51.488;5.462;2023-12-20T08:57:53;7.70;99.90
75430;DHT22;64127;51.488;5.462;2023-12-20T09:00:25;7.70;99.90
75430;DHT22;64127;51.488;5.462;2023-12-20T09:02:59;7.70;99.90
75430;DHT22;64127;51.488;5.462;2023-12-20T09:05:31;7.70;99.90
75430;DHT22;64127;51.488;5.462;2023-12-20T09:08:04;7.70;99.90
75430;DHT22;64127;51.488;5.462;2023-12-20T09:10:37;7.70;99.90
75430;DHT22;64127;51.488;5.462;2023-12-20T09:13:09;7.70;99.90
75430;DHT22;64127;51.488;5.462;2023-12-20T09:15:41;7.60;99.90
75430;DHT22;64127;51.488;5.462;2023-12-20T09:18:13;7.70;99.90
75430;DHT22;64127;51.488;5.462;2023-12-20T09:20:46;7.60;99.90
75430;DHT22;64127;51.488;5.462;2023-12-20T09:23:21;7.70;99.90
75430;DHT22;64127;51.488;5.462;2023-12-20T09:25:53;7.70;99.90
75430;DHT22;64127;51.488;5.462;2023-12-20T09:28:28;7.70;99.90
75430;DHT22;64127;51.488;5.462;2023-12-20T09:31:00;7.70;99.90
75430;DHT22;64127;51.488;5.462;2023-12-20T09:33:33;7.70;99.90
75430;DHT22;64127;51.488;5.462;2023-12-20T09:36:06;7.70;99.90
75430;DHT22;64127;51.488;5.462;2023-12-20T09:38:39;7.70;99.90
75430;DHT22;64127;51.488;5.462;2023-12-20T09:41:11;7.70;99.90
75430;DHT22;64127;51.488;5.462;2023-12-20T09:43:43;7.70;99.90
75430;DHT22;64127;51.488;5.462;2023-12-20T09:46:18;7.80;99.90
75430;DHT22;64127;51.488;5.462;2023-12-20T09:48:54;7.80;99.90
75430;DHT22;64127;51.488;5.462;2023-12-20T09:51:29;7.80;99.90
75430;DHT22;64127;51.488;5.462;2023-12-20T09:54:03;7.80;99.90
75430;DHT22;64127;51.488;5.462;2023-12-20T09:56:35;7.80;99.90
75430;DHT22;64127;51.488;5.462;2023-12-20T09:59:09;7.80;99.90
75430;DHT22;64127;51.488;5.462;2023-12-20T10:01:42;7.80;99.90
75430;DHT22;64127;51.488;5.462;2023-12-20T10:04:15;7.90;99.90
75430;DHT22;64127;51.488;5.462;2023-12-20T10:07:02;7.90;99.90
75430;DHT22;64127;51.488;5.462;2023-12-20T10:09:38;7.90;99.90
75430;DHT22;64127;51.488;5.462;2023-12-20T10:12:10;7.90;99.90
75430;DHT22;64127;51.488;5.462;2023-12-20T10:14:42;7.90;99.90
75430;DHT22;64127;51.488;5.462;2023-12-20T10:17:14;7.90;99.90
75430;DHT22;64127;51.488;5.462;2023-12-20T10:19:47;7.90;99.90
75430;DHT22;64127;51.488;5.462;2023-12-20T10:22:19;7.90;99.90
75430;DHT22;64127;51.488;5.462;2023-12-20T10:24:51;8.00;99.90
75430;DHT22;64127;51.488;5.462;2023-12-20T10:27:23;8.00;99.90
75430;DHT22;64127;51.488;5.462;2023-12-20T10:29:55;8.00;99.90
75430;DHT22;64127;51.488;5.462;2023-12-20T10:32:27;8.00;99.90
75430;DHT22;64127;51.488;5.462;2023-12-20T10:35:00;8.00;99.90
75430;DHT22;64127;51.488;5.462;2023-12-20T10:37:38;8.00;99.90
75430;DHT22;64127;51.488;5.462;2023-12-20T10:40:12;8.00;99.90
75430;DHT22;64127;51.488;5.462;2023-12-20T10:42:44;8.10;99.90
75430;DHT22;64127;51.488;5.462;2023-12-20T10:45:17;8.10;99.90
75430;DHT22;64127;51.488;5.462;2023-12-20T10:47:50;8.10;99.90
75430;DHT22;64127;51.488;5.462;2023-12-20T10:50:23;8.10;99.90
75430;DHT22;64127;51.488;5.462;2023-12-20T10:52:55;8.10;99.90
75430;DHT22;64127;51.488;5.462;2023-12-20T10:55:28;8.10;99.90
75430;DHT22;64127;51.488;5.462;2023-12-20T10:58:01;8.10;99.90
75430;DHT22;64127;51.488;5.462;2023-12-20T11:00:40;8.10;99.90
75430;DHT22;64127;51.488;5.462;2023-12-20T11:03:13;8.10;99.90
75430;DHT22;64127;51.488;5.462;2023-12-20T11:09:25;8.20;99.90
75430;DHT22;64127;51.488;5.462;2023-12-20T11:12:13;8.20;99.90
75430;DHT22;64127;51.488;5.462;2023-12-20T11:14:53;8.20;99.90
75430;DHT22;64127;51.488;5.462;2023-12-20T11:17:29;8.20;99.90
75430;DHT22;64127;51.488;5.462;2023-12-20T11:22:34;8.20;99.90
75430;DHT22;64127;51.488;5.462;2023-12-20T11:25:12;8.30;99.90
75430;DHT22;64127;51.488;5.462;2023-12-20T11:27:46;8.20;99.90
75430;DHT22;64127;51.488;5.462;2023-12-20T11:30:54;8.30;99.90
75430;DHT22;64127;51.488;5.462;2023-12-20T11:33:37;8.20;99.90
75430;DHT22;64127;51.488;5.462;2023-12-20T11:36:14;8.20;99.90
75430;DHT22;64127;51.488;5.462;2023-12-20T11:38:57;8.20;99.90
75430;DHT22;64127;51.488;5.462;2023-12-20T11:41:32;8.20;99.90
75430;DHT22;64127;51.488;5.462;2023-12-20T11:44:04;8.20;99.90
75430;DHT22;64127;51.488;5.462;2023-12-20T11:46:36;8.20;99.90
75430;DHT22;64127;51.488;5.462;2023-12-20T11:49:09;8.20;99.90
75430;DHT22;64127;51.488;5.462;2023-12-20T11:51:41;8.10;99.90
75430;DHT22;64127;51.488;5.462;2023-12-20T11:54:15;8.20;99.90
75430;DHT22;64127;51.488;5.462;2023-12-20T11:56:48;8.20;99.90
75430;DHT22;64127;51.488;5.462;2023-12-20T11:59:20;8.20;99.90
75430;DHT22;64127;51.488;5.462;2023-12-20T12:01:54;8.10;99.90
75430;DHT22;64127;51.488;5.462;2023-12-20T12:04:32;8.20;99.90
75430;DHT22;64127;51.488;5.462;2023-12-20T12:07:04;8.20;99.90
75430;DHT22;64127;51.488;5.462;2023-12-20T12:09:36;8.20;99.90
75430;DHT22;64127;51.488;5.462;2023-12-20T12:12:08;8.10;99.90
75430;DHT22;64127;51.488;5.462;2023-12-20T12:14:45;8.10;99.90
75430;DHT22;64127;51.488;5.462;2023-12-20T12:17:18;8.10;99.90
75430;DHT22;64127;51.488;5.462;2023-12-20T12:19:50;8.10;99.90
75430;DHT22;64127;51.488;5.462;2023-12-20T12:22:22;8.10;99.90
75430;DHT22;64127;51.488;5.462;2023-12-20T12:25:12;8.10;99.90
75430;DHT22;64127;51.488;5.462;2023-12-20T12:27:45;8.10;99.90
75430;DHT22;64127;51.488;5.462;2023-12-20T12:30:18;8.10;99.90
75430;DHT22;64127;51.488;5.462;2023-12-20T12:32:51;8.10;99.90
75430;DHT22;64127;51.488;5.462;2023-12-20T12:35:24;8.10;99.90
75430;DHT22;64127;51.488;5.462;2023-12-20T12:37:59;8.10;99.90
75430;DHT22;64127;51.488;5.462;2023-12-20T12:40:34;8.10;99.90
75430;DHT22;64127;51.488;5.462;2023-12-20T12:43:08;8.20;99.90
75430;DHT22;64127;51.488;5.462;2023-12-20T12:45:40;8.20;99.90
75430;DHT22;64127;51.488;5.462;2023-12-20T12:48:12;8.20;99.90
75430;DHT22;64127;51.488;5.462;2023-12-20T12:50:46;8.20;99.90
75430;DHT22;64127;51.488;5.462;2023-12-20T12:53:18;8.20;99.90
75430;DHT22;64127;51.488;5.462;2023-12-20T12:55:50;8.20;99.90
75430;DHT22;64127;51.488;5.462;2023-12-20T12:58:22;8.30;99.90
75430;DHT22;64127;51.488;5.462;2023-12-20T13:00:54;8.30;99.90
75430;DHT22;64127;51.488;5.462;2023-12-20T13:03:27;8.30;99.90
75430;DHT22;64127;51.488;5.462;2023-12-20T13:05:59;8.30;99.90
75430;DHT22;64127;51.488;5.462;2023-12-20T13:08:32;8.30;99.90
75430;DHT22;64127;51.488;5.462;2023-12-20T13:11:04;8.30;99.90
75430;DHT22;64127;51.488;5.462;2023-12-20T13:13:36;8.30;99.90
75430;DHT22;64127;51.488;5.462;2023-12-20T13:16:08;8.40;99.90
75430;DHT22;64127;51.488;5.462;2023-12-20T13:18:41;8.40;99.90
75430;DHT22;64127;51.488;5.462;2023-12-20T13:21:14;8.40;99.90
75430;DHT22;64127;51.488;5.462;2023-12-20T13:23:46;8.40;99.90
75430;DHT22;64127;51.488;5.462;2023-12-20T13:26:18;8.40;99.90
75430;DHT22;64127;51.488;5.462;2023-12-20T13:28:50;8.40;99.90
75430;DHT22;64127;51.488;5.462;2023-12-20T13:31:22;8.40;99.90
75430;DHT22;64127;51.488;5.462;2023-12-20T13:33:54;8.50;99.90
75430;DHT22;64127;51.488;5.462;2023-12-20T13:36:26;8.50;99.90
75430;DHT22;64127;51.488;5.462;2023-12-20T13:38:58;8.40;99.90
75430;DHT22;64127;51.488;5.462;2023-12-20T13:41:31;8.40;99.90
75430;DHT22;64127;51.488;5.462;2023-12-20T13:44:03;8.40;99.90
75430;DHT22;64127;51.488;5.462;2023-12-20T13:46:36;8.50;99.90
75430;DHT22;64127;51.488;5.462;2023-12-20T13:49:08;8.50;99.90
75430;DHT22;64127;51.488;5.462;2023-12-20T13:51:40;8.50;99.90
75430;DHT22;64127;51.488;5.462;2023-12-20T13:54:12;8.50;99.90
75430;DHT22;64127;51.488;5.462;2023-12-20T13:56:44;8.50;99.90
75430;DHT22;64127;51.488;5.462;2023-12-20T13:59:36;8.50;99.90
75430;DHT22;64127;51.488;5.462;2023-12-20T14:02:08;8.50;99.90
75430;DHT22;64127;51.488;5.462;2023-12-20T14:04:40;8.50;99.90
75430;DHT22;64127;51.488;5.462;2023-12-20T14:07:14;8.50;99.90
75430;DHT22;64127;51.488;5.462;2023-12-20T14:09:46;8.50;99.90
75430;DHT22;64127;51.488;5.462;2023-12-20T14:12:19;8.50;99.90
75430;DHT22;64127;51.488;5.462;2023-12-20T14:14:51;8.50;99.90
75430;DHT22;64127;51.488;5.462;2023-12-20T14:17:23;8.50;99.90
75430;DHT22;64127;51.488;5.462;2023-12-20T14:19:55;8.60;99.90
75430;DHT22;64127;51.488;5.462;2023-12-20T14:22:28;8.60;99.90
75430;DHT22;64127;51.488;5.462;2023-12-20T14:25:01;8.60;99.90
75430;DHT22;64127;51.488;5.462;2023-12-20T14:27:34;8.60;99.90
75430;DHT22;64127;51.488;5.462;2023-12-20T14:30:07;8.60;99.90
75430;DHT22;64127;51.488;5.462;2023-12-20T14:32:39;8.60;99.90
75430;DHT22;64127;51.488;5.462;2023-12-20T14:35:11;8.60;99.90
75430;DHT22;64127;51.488;5.462;2023-12-20T14:37:44;8.60;99.90
75430;DHT22;64127;51.488;5.462;2023-12-20T14:40:17;8.60;99.90
75430;DHT22;64127;51.488;5.462;2023-12-20T14:42:49;8.60;99.90
75430;DHT22;64127;51.488;5.462;2023-12-20T14:45:22;8.60;99.90
75430;DHT22;64127;51.488;5.462;2023-12-20T14:47:54;8.60;99.90
75430;DHT22;64127;51.488;5.462;2023-12-20T14:50:27;8.70;99.90
75430;DHT22;64127;51.488;5.462;2023-12-20T14:52:58;8.70;99.90
75430;DHT22;64127;51.488;5.462;2023-12-20T14:55:31;8.70;99.90
75430;DHT22;64127;51.488;5.462;2023-12-20T14:58:03;8.70;99.90
75430;DHT22;64127;51.488;5.462;2023-12-20T15:00:35;8.70;99.90
75430;DHT22;64127;51.488;5.462;2023-12-20T15:03:07;8.70;99.90
75430;DHT22;64127;51.488;5.462;2023-12-20T15:05:39;8.70;99.90
75430;DHT22;64127;51.488;5.462;2023-12-20T15:08:12;8.70;99.90
75430;DHT22;64127;51.488;5.462;2023-12-20T15:10:44;8.70;99.90
75430;DHT22;64127;51.488;5.462;2023-12-20T15:13:16;8.70;99.90
75430;DHT22;64127;51.488;5.462;2023-12-20T15:15:48;8.70;99.90
75430;DHT22;64127;51.488;5.462;2023-12-20T15:18:20;8.70;99.90
75430;DHT22;64127;51.488;5.462;2023-12-20T15:20:52;8.70;99.90
75430;DHT22;64127;51.488;5.462;2023-12-20T15:23:24;8.80;99.90
75430;DHT22;64127;51.488;5.462;2023-12-20T15:25:58;8.80;99.90
75430;DHT22;64127;51.488;5.462;2023-12-20T15:28:30;8.80;99.90
75430;DHT22;64127;51.488;5.462;2023-12-20T15:31:04;8.80;99.90
75430;DHT22;64127;51.488;5.462;2023-12-20T15:33:37;8.80;99.90
75430;DHT22;64127;51.488;5.462;2023-12-20T15:36:09;8.80;99.90
75430;DHT22;64127;51.488;5.462;2023-12-20T15:38:41;8.80;99.90
75430;DHT22;64127;51.488;5.462;2023-12-20T15:41:22;8.80;99.90
75430;DHT22;64127;51.488;5.462;2023-12-20T15:43:55;8.80;99.90
75430;DHT22;64127;51.488;5.462;2023-12-20T15:46:27;8.80;99.90
75430;DHT22;64127;51.488;5.462;2023-12-20T15:48:59;8.80;99.90
75430;DHT22;64127;51.488;5.462;2023-12-20T15:51:32;8.80;99.90
75430;DHT22;64127;51.488;5.462;2023-12-20T15:54:04;8.80;99.90
75430;DHT22;64127;51.488;5.462;2023-12-20T15:56:38;8.80;99.90
75430;DHT22;64127;51.488;5.462;2023-12-20T15:59:13;8.80;99.90
75430;DHT22;64127;51.488;5.462;2023-12-20T16:01:45;8.80;99.90
75430;DHT22;64127;51.488;5.462;2023-12-20T16:04:25;8.80;99.90
75430;DHT22;64127;51.488;5.462;2023-12-20T16:06:57;8.80;99.90
75430;DHT22;64127;51.488;5.462;2023-12-20T16:09:29;8.80;99.90
75430;DHT22;64127;51.488;5.462;2023-12-20T16:12:01;8.80;99.90
75430;DHT22;64127;51.488;5.462;2023-12-20T16:14:34;8.80;99.90
75430;DHT22;64127;51.488;5.462;2023-12-20T16:17:06;8.80;99.90
75430;DHT22;64127;51.488;5.462;2023-12-20T16:19:38;8.80;99.90
75430;DHT22;64127;51.488;5.462;2023-12-20T16:22:10;8.80;99.90
75430;DHT22;64127;51.488;5.462;2023-12-20T16:24:42;8.80;99.90
75430;DHT22;64127;51.488;5.462;2023-12-20T16:27:14;8.80;99.90